createdAt,value
2022-09-30T00:01:08.686Z,0.60
2022-09-30T00:03:37.006Z,0.77
2022-09-30T00:06:08.730Z,0.80
2022-09-30T00:08:38.645Z,0.63
2022-09-30T00:11:17.864Z,0.73
2022-09-30T00:13:47.234Z,0.83
2022-09-30T00:16:15.394Z,0.60
2022-09-30T00:18:43.518Z,0.70
2022-09-30T00:21:11.764Z,0.97
2022-09-30T00:23:39.554Z,0.50
2022-09-30T00:26:09.654Z,0.70
2022-09-30T00:28:36.306Z,0.67
2022-09-30T00:31:06.607Z,0.90
2022-09-30T00:33:34.055Z,0.57
2022-09-30T00:36:01.044Z,0.63
2022-09-30T00:38:27.963Z,0.60
2022-09-30T00:40:56.476Z,0.60
2022-09-30T00:43:42.297Z,0.50
2022-09-30T00:46:27.835Z,0.50
2022-09-30T00:48:55.404Z,0.40
2022-09-30T00:51:31.152Z,0.43
2022-09-30T00:54:00.906Z,0.93
2022-09-30T00:56:34.843Z,0.50
2022-09-30T00:59:11.344Z,0.60
2022-09-30T01:01:40.318Z,0.40
2022-09-30T01:04:13.224Z,0.40
2022-09-30T01:06:41.154Z,0.63
2022-09-30T01:09:08.428Z,0.40
2022-09-30T01:11:35.124Z,0.60
2022-09-30T01:14:27.883Z,0.53
2022-09-30T01:17:11.342Z,0.40
2022-09-30T01:19:58.344Z,0.40
2022-09-30T01:22:33.355Z,0.40
2022-09-30T01:25:35.827Z,0.50
2022-09-30T01:28:20.834Z,0.40
2022-09-30T01:31:05.770Z,0.30
2022-09-30T01:33:52.822Z,0.20
2022-09-30T01:36:49.605Z,0.20
2022-09-30T01:39:39.904Z,0.20
2022-09-30T01:42:32.445Z,0.30
2022-09-30T01:45:13.380Z,0.20
2022-09-30T01:47:43.913Z,0.20
2022-09-30T01:50:41.086Z,0.50
2022-09-30T01:53:19.824Z,0.30
2022-09-30T01:56:02.209Z,0.20
2022-09-30T01:59:01.034Z,0.20
2022-09-30T02:01:44.521Z,0.30
2022-09-30T02:04:17.145Z,0.20
2022-09-30T02:06:46.404Z,0.20
2022-09-30T02:09:22.649Z,0.37
2022-09-30T02:11:49.504Z,0.20
2022-09-30T02:14:34.701Z,0.30
2022-09-30T02:17:16.192Z,0.30
2022-09-30T02:19:51.217Z,0.20
2022-09-30T02:22:26.328Z,0.30
2022-09-30T02:24:57.093Z,0.40
2022-09-30T02:27:32.604Z,0.30
2022-09-30T02:30:01.193Z,0.40
2022-09-30T02:32:32.127Z,0.47
2022-09-30T02:35:12.165Z,0.30
2022-09-30T02:37:42.291Z,0.20
2022-09-30T02:40:12.198Z,0.40
2022-09-30T02:42:39.629Z,0.20
2022-09-30T02:45:10.525Z,0.20
2022-09-30T02:47:53.832Z,0.20
2022-09-30T02:50:39.215Z,0.20
2022-09-30T02:53:14.925Z,0.30
2022-09-30T02:56:09.200Z,0.20
2022-09-30T02:58:39.616Z,0.20
2022-09-30T03:01:08.273Z,0.20
2022-09-30T03:03:43.833Z,0.30
2022-09-30T03:06:11.164Z,0.20
2022-09-30T03:08:38.185Z,0.20
2022-09-30T03:11:05.389Z,0.23
2022-09-30T03:13:56.022Z,0.30
2022-09-30T03:17:00.143Z,0.40
2022-09-30T03:19:51.333Z,0.30
2022-09-30T03:22:31.425Z,0.40
2022-09-30T03:25:20.005Z,0.20
2022-09-30T03:27:53.678Z,0.57
2022-09-30T03:30:27.054Z,0.77
2022-09-30T03:32:53.724Z,0.50
2022-09-30T03:35:39.073Z,0.50
2022-09-30T03:38:37.663Z,0.30
2022-09-30T03:41:13.052Z,0.23
2022-09-30T03:43:50.275Z,0.20
2022-09-30T03:46:42.309Z,0.30
2022-09-30T03:49:13.433Z,0.30
2022-09-30T03:51:41.006Z,0.40
2022-09-30T03:54:13.313Z,0.30
2022-09-30T03:56:43.538Z,0.30
2022-09-30T03:59:20.693Z,0.27
2022-09-30T04:01:47.477Z,0.30
2022-09-30T04:04:14.554Z,0.30
2022-09-30T04:06:41.416Z,0.30
2022-09-30T04:09:08.653Z,0.40
2022-09-30T04:11:35.463Z,0.50
2022-09-30T04:14:02.496Z,0.80
2022-09-30T04:16:29.488Z,0.70
2022-09-30T04:18:56.938Z,0.50
2022-09-30T04:21:23.776Z,0.57
2022-09-30T04:23:50.534Z,0.50
2022-09-30T04:26:20.091Z,0.53
2022-09-30T04:28:46.895Z,0.50
2022-09-30T04:31:14.694Z,0.73
2022-09-30T04:33:41.388Z,1.03
2022-09-30T04:36:07.992Z,0.80
2022-09-30T04:38:34.703Z,0.67
2022-09-30T04:41:05.834Z,0.87
2022-09-30T04:43:32.867Z,0.80
2022-09-30T04:45:59.728Z,0.63
2022-09-30T04:48:28.083Z,0.80
2022-09-30T04:50:54.703Z,0.23
2022-09-30T04:53:21.279Z,0.30
2022-09-30T04:55:48.085Z,0.37
2022-09-30T04:58:15.328Z,0.30
2022-09-30T05:00:41.991Z,0.20
2022-09-30T05:03:08.684Z,0.30
2022-09-30T05:05:35.437Z,0.30
2022-09-30T05:08:05.670Z,0.50
2022-09-30T05:10:32.840Z,0.40
2022-09-30T05:12:59.559Z,0.30
2022-09-30T05:15:26.953Z,0.40
2022-09-30T05:17:53.913Z,0.30
2022-09-30T05:20:21.526Z,0.30
2022-09-30T05:22:48.629Z,0.50
2022-09-30T05:25:15.510Z,0.30
2022-09-30T05:27:42.346Z,0.20
2022-09-30T05:30:09.481Z,0.30
2022-09-30T05:32:36.260Z,0.30
2022-09-30T05:35:03.681Z,0.30
2022-09-30T05:37:30.593Z,0.40
2022-09-30T05:39:57.464Z,0.30
2022-09-30T05:42:24.198Z,0.20
2022-09-30T05:44:50.950Z,0.50
2022-09-30T05:47:17.723Z,0.50
2022-09-30T05:49:45.577Z,0.40
2022-09-30T05:52:14.952Z,0.40
2022-09-30T05:54:42.577Z,0.30
2022-09-30T05:57:09.558Z,0.53
2022-09-30T05:59:37.830Z,0.50
2022-09-30T06:02:05.554Z,0.30
2022-09-30T06:04:32.282Z,0.60
2022-09-30T06:06:58.993Z,3.90
2022-09-30T06:09:25.996Z,3.73
2022-09-30T06:11:53.138Z,4.43
2022-09-30T06:14:20.056Z,4.53
2022-09-30T06:16:47.362Z,3.30
2022-09-30T06:19:14.627Z,1.90
2022-09-30T06:21:41.332Z,4.40
2022-09-30T06:24:13.100Z,4.67
2022-09-30T06:26:39.735Z,3.13
2022-09-30T06:29:06.497Z,2.67
2022-09-30T06:31:33.305Z,7.03
2022-09-30T06:34:00.513Z,1.87
2022-09-30T06:36:29.222Z,1.87
2022-09-30T06:38:55.909Z,2.00
2022-09-30T06:41:27.644Z,2.03
2022-09-30T06:44:03.081Z,2.80
2022-09-30T06:46:31.513Z,3.50
2022-09-30T06:49:14.562Z,4.43
2022-09-30T06:51:42.312Z,4.23
2022-09-30T06:54:09.419Z,4.10
2022-09-30T06:56:37.030Z,3.23
2022-09-30T06:59:04.644Z,2.47
2022-09-30T07:01:31.543Z,2.80
2022-09-30T07:03:58.295Z,1.27
2022-09-30T07:06:29.261Z,1.50
2022-09-30T07:08:57.023Z,1.97
2022-09-30T07:11:24.915Z,5.13
2022-09-30T07:13:51.879Z,3.30
2022-09-30T07:16:19.978Z,2.73
2022-09-30T07:18:47.163Z,2.63
2022-09-30T07:21:16.319Z,3.47
2022-09-30T07:23:48.194Z,2.27
2022-09-30T07:26:16.920Z,3.20
2022-09-30T07:28:44.005Z,2.50
2022-09-30T07:31:33.726Z,2.53
2022-09-30T07:34:01.655Z,1.70
2022-09-30T07:36:33.090Z,1.67
2022-09-30T07:39:05.989Z,1.60
2022-09-30T07:41:36.136Z,2.37
2022-09-30T07:44:03.260Z,1.17
2022-09-30T07:46:32.638Z,1.50
2022-09-30T07:49:07.719Z,1.50
2022-09-30T07:51:37.434Z,1.70
2022-09-30T07:54:10.433Z,1.00
2022-09-30T07:57:08.196Z,1.73
2022-09-30T07:59:27.535Z,1.73
2022-09-30T08:01:54.533Z,1.50
2022-09-30T08:04:22.665Z,1.47
2022-09-30T08:06:53.755Z,1.57
2022-09-30T08:09:22.528Z,2.17
2022-09-30T08:11:49.689Z,1.40
2022-09-30T08:14:19.004Z,1.70
2022-09-30T08:16:45.947Z,1.77
2022-09-30T08:19:18.717Z,1.00
2022-09-30T08:21:46.352Z,1.50
2022-09-30T08:24:13.681Z,1.07
2022-09-30T08:26:41.020Z,1.27
2022-09-30T08:29:07.724Z,0.80
2022-09-30T08:31:34.582Z,0.87
2022-09-30T08:34:03.248Z,1.10
2022-09-30T08:36:30.551Z,1.40
2022-09-30T08:38:57.721Z,0.90
2022-09-30T08:41:42.589Z,1.07
2022-09-30T08:44:39.087Z,1.03
2022-09-30T08:47:25.506Z,0.90
2022-09-30T08:50:15.037Z,0.77
2022-09-30T08:52:49.594Z,2.93
2022-09-30T08:55:20.908Z,0.60
2022-09-30T08:57:48.001Z,0.70
2022-09-30T09:00:17.446Z,0.40
2022-09-30T09:02:49.436Z,0.43
2022-09-30T09:05:41.936Z,0.80
2022-09-30T09:08:22.954Z,0.53
2022-09-30T09:11:14.095Z,0.70
2022-09-30T09:14:04.907Z,0.70
2022-09-30T09:16:40.152Z,0.60
2022-09-30T09:19:16.246Z,1.23
2022-09-30T09:21:57.845Z,0.87
2022-09-30T09:24:44.873Z,0.53
2022-09-30T09:27:27.017Z,0.47
2022-09-30T09:30:06.701Z,0.47
2022-09-30T09:32:34.444Z,0.50
2022-09-30T09:35:10.145Z,0.57
2022-09-30T09:38:02.985Z,0.40
2022-09-30T09:40:45.325Z,0.60
2022-09-30T09:43:48.355Z,0.70
2022-09-30T09:46:50.845Z,0.50
2022-09-30T09:49:21.010Z,3.60
2022-09-30T09:51:59.934Z,0.73
2022-09-30T09:54:31.285Z,1.03
2022-09-30T09:57:18.596Z,0.97
2022-09-30T10:00:21.886Z,0.60
2022-09-30T10:03:20.845Z,0.50
2022-09-30T10:06:07.675Z,0.47
2022-09-30T10:08:36.955Z,0.53
2022-09-30T10:11:24.473Z,0.90
2022-09-30T10:13:53.805Z,0.93
2022-09-30T10:16:31.257Z,0.43
2022-09-30T10:18:59.212Z,0.50
2022-09-30T10:21:28.314Z,0.40
2022-09-30T10:23:55.278Z,0.40
2022-09-30T10:26:24.829Z,0.37
2022-09-30T10:28:55.667Z,0.30
2022-09-30T10:31:22.373Z,0.40
2022-09-30T10:33:56.536Z,0.60
2022-09-30T10:36:30.928Z,0.50
2022-09-30T10:39:06.775Z,0.53
2022-09-30T10:41:36.330Z,0.40
2022-09-30T10:44:06.715Z,0.30
2022-09-30T10:46:36.970Z,0.50
2022-09-30T10:49:10.265Z,0.43
2022-09-30T10:51:37.105Z,0.30
2022-09-30T10:54:05.469Z,0.30
2022-09-30T10:56:44.146Z,0.40
2022-09-30T10:59:35.479Z,0.30
2022-09-30T11:02:15.179Z,0.30
2022-09-30T11:04:48.456Z,0.37
2022-09-30T11:07:31.315Z,0.40
2022-09-30T11:10:08.535Z,0.30
2022-09-30T11:12:45.360Z,0.30
2022-09-30T11:15:18.036Z,0.30
2022-09-30T11:17:56.707Z,0.40
2022-09-30T11:20:36.830Z,0.50
2022-09-30T11:23:15.736Z,0.23
2022-09-30T11:25:42.428Z,0.47
2022-09-30T11:28:50.995Z,0.50
2022-09-30T11:31:41.681Z,0.30
2022-09-30T11:34:32.914Z,0.50
2022-09-30T11:37:16.509Z,0.57
2022-09-30T11:39:48.964Z,0.50
2022-09-30T11:42:40.736Z,0.40
2022-09-30T11:45:27.149Z,0.30
2022-09-30T11:48:36.128Z,0.40
2022-09-30T11:51:02.726Z,0.30
2022-09-30T11:54:07.855Z,0.43
2022-09-30T11:56:34.565Z,0.40
2022-09-30T11:59:04.008Z,0.40
2022-09-30T12:01:58.730Z,0.40
2022-09-30T12:04:41.677Z,0.80
2022-09-30T12:07:18.247Z,0.50
2022-09-30T12:09:49.266Z,0.20
2022-09-30T12:12:18.061Z,0.50
2022-09-30T12:14:55.795Z,0.30
2022-09-30T12:17:26.965Z,0.30
2022-09-30T12:19:55.944Z,0.40
2022-09-30T12:22:31.433Z,0.37
2022-09-30T12:24:58.163Z,0.20
2022-09-30T12:27:29.425Z,0.57
2022-09-30T12:30:19.174Z,0.40
2022-09-30T12:33:05.305Z,0.30
2022-09-30T12:36:17.233Z,0.30
2022-09-30T12:39:02.487Z,0.30
2022-09-30T12:42:00.727Z,0.40
2022-09-30T12:44:42.384Z,0.20
2022-09-30T12:47:46.017Z,0.20
2022-09-30T12:50:19.285Z,0.30
2022-09-30T12:52:46.326Z,0.33
2022-09-30T12:55:38.467Z,0.40
2022-09-30T12:58:05.745Z,0.30
2022-09-30T13:00:34.959Z,0.30
2022-09-30T13:03:15.947Z,0.40
2022-09-30T13:05:43.769Z,0.30
2022-09-30T13:08:25.416Z,0.30
2022-09-30T13:11:00.289Z,0.30
2022-09-30T13:13:31.837Z,0.30
2022-09-30T13:16:03.741Z,0.30
2022-09-30T13:18:30.455Z,0.30
2022-09-30T13:20:57.816Z,0.20
2022-09-30T13:23:40.538Z,0.30
2022-09-30T13:26:29.181Z,0.43
2022-09-30T13:29:01.977Z,0.40
2022-09-30T13:31:29.408Z,3.97
2022-09-30T13:34:02.026Z,3.37
2022-09-30T13:36:48.955Z,2.13
2022-09-30T13:39:24.413Z,1.30
2022-09-30T13:42:09.513Z,3.00
2022-09-30T13:44:57.605Z,1.33
2022-09-30T13:47:30.218Z,0.50
2022-09-30T13:50:23.216Z,0.50
2022-09-30T13:52:54.614Z,0.43
2022-09-30T13:55:34.375Z,1.00
2022-09-30T13:58:30.894Z,0.70
2022-09-30T14:01:21.650Z,0.60
2022-09-30T14:04:12.405Z,5.30
2022-09-30T14:07:03.867Z,0.70
2022-09-30T14:09:52.237Z,2.10
2022-09-30T14:12:53.468Z,1.20
2022-09-30T14:15:32.025Z,2.40
2022-09-30T14:18:23.311Z,1.90
2022-09-30T14:21:14.347Z,3.33
2022-09-30T14:23:41.664Z,0.60
2022-09-30T14:26:48.986Z,0.50
2022-09-30T14:29:43.926Z,1.63
2022-09-30T14:32:18.995Z,2.53
2022-09-30T14:34:49.275Z,2.90
2022-09-30T14:37:21.786Z,2.30
2022-09-30T14:39:49.506Z,5.70
2022-09-30T14:42:25.066Z,2.40
2022-09-30T14:44:52.185Z,2.70
2022-09-30T14:47:19.557Z,3.60
2022-09-30T14:49:46.306Z,1.70
2022-09-30T14:52:37.087Z,5.40
2022-09-30T14:55:04.829Z,3.60
2022-09-30T14:57:34.295Z,6.40
2022-09-30T15:00:28.385Z,2.60
2022-09-30T15:02:55.247Z,3.97
2022-09-30T15:05:21.996Z,2.10
2022-09-30T15:07:49.268Z,1.00
2022-09-30T15:10:24.150Z,1.10
2022-09-30T15:12:52.075Z,2.23
2022-09-30T15:15:37.804Z,1.13
2022-09-30T15:18:24.175Z,1.67
2022-09-30T15:20:54.146Z,4.50
2022-09-30T15:23:28.649Z,14.20
2022-09-30T15:25:55.945Z,7.57
2022-09-30T15:28:22.675Z,4.30
2022-09-30T15:30:52.037Z,4.40
2022-09-30T15:33:22.384Z,2.20
2022-09-30T15:35:49.115Z,1.23
2022-09-30T15:38:20.793Z,1.63
2022-09-30T15:40:57.244Z,1.63
2022-09-30T15:43:32.974Z,4.40
2022-09-30T15:46:16.764Z,1.43
2022-09-30T15:48:44.955Z,1.40
2022-09-30T15:51:39.421Z,1.20
2022-09-30T15:54:15.106Z,1.33
2022-09-30T15:56:43.222Z,6.03
2022-09-30T15:59:11.596Z,5.30
2022-09-30T16:01:38.244Z,4.17
2022-09-30T16:04:17.327Z,6.17
2022-09-30T16:06:48.005Z,3.90
2022-09-30T16:09:20.047Z,1.60
2022-09-30T16:11:56.617Z,2.30
2022-09-30T16:14:26.629Z,1.80
2022-09-30T16:16:56.410Z,1.97
2022-09-30T16:19:24.665Z,2.37
2022-09-30T16:21:52.896Z,2.90
2022-09-30T16:24:22.596Z,4.50
2022-09-30T16:26:53.964Z,4.77
2022-09-30T16:29:21.395Z,4.17
2022-09-30T16:31:50.337Z,4.80
2022-09-30T16:34:28.306Z,5.73
2022-09-30T16:37:03.806Z,4.43
2022-09-30T16:39:30.480Z,1.23
2022-09-30T16:41:57.128Z,1.00
2022-09-30T16:44:24.505Z,1.10
2022-09-30T16:46:52.015Z,1.80
2022-09-30T16:49:19.814Z,1.30
2022-09-30T16:51:46.534Z,1.60
2022-09-30T16:54:13.612Z,1.50
2022-09-30T16:56:40.306Z,1.40
2022-09-30T16:59:18.231Z,2.13
2022-09-30T17:01:45.024Z,1.80
2022-09-30T17:04:14.167Z,1.60
2022-09-30T17:06:43.824Z,2.17
2022-09-30T17:09:10.513Z,1.80
2022-09-30T17:11:38.382Z,1.63
2022-09-30T17:14:05.667Z,2.00
2022-09-30T17:16:33.233Z,3.40
2022-09-30T17:19:00.136Z,1.90
2022-09-30T17:21:27.305Z,1.97
2022-09-30T17:23:57.988Z,2.40
2022-09-30T17:26:24.743Z,2.07
2022-09-30T17:28:51.354Z,2.43
2022-09-30T17:31:18.075Z,4.20
2022-09-30T17:33:44.877Z,4.57
2022-09-30T17:36:13.283Z,6.67
2022-09-30T17:38:40.372Z,4.50
2022-09-30T17:41:26.347Z,3.37
2022-09-30T17:43:52.951Z,2.77
2022-09-30T17:46:23.196Z,2.00
2022-09-30T17:48:51.265Z,3.00
2022-09-30T17:51:18.282Z,2.03
2022-09-30T17:53:45.454Z,3.13
2022-09-30T17:56:20.060Z,2.47
2022-09-30T17:58:49.070Z,2.60
2022-09-30T18:01:17.672Z,2.00
2022-09-30T18:03:45.955Z,2.13
2022-09-30T18:06:14.661Z,2.20
2022-09-30T18:08:41.471Z,2.17
2022-09-30T18:11:08.406Z,1.97
2022-09-30T18:13:35.262Z,1.40
2022-09-30T18:16:06.358Z,1.70
2022-09-30T18:18:34.466Z,1.70
2022-09-30T18:21:01.184Z,1.70
2022-09-30T18:23:27.853Z,2.93
2022-09-30T18:25:56.196Z,2.37
2022-09-30T18:28:23.393Z,2.27
2022-09-30T18:30:50.238Z,2.00
2022-09-30T18:33:18.904Z,1.60
2022-09-30T18:35:46.562Z,2.23
2022-09-30T18:38:14.929Z,1.60
2022-09-30T18:40:43.403Z,1.87
2022-09-30T18:43:13.593Z,2.00
2022-09-30T18:45:40.533Z,2.40
2022-09-30T18:48:07.850Z,2.90
2022-09-30T18:50:34.765Z,2.33
2022-09-30T18:53:09.085Z,2.07
2022-09-30T18:55:38.548Z,3.13
2022-09-30T18:58:05.908Z,2.07
2022-09-30T19:00:32.749Z,2.10
2022-09-30T19:02:59.571Z,2.37
2022-09-30T19:05:26.632Z,2.20
2022-09-30T19:07:54.815Z,1.87
2022-09-30T19:10:21.957Z,1.80
2022-09-30T19:12:49.714Z,1.93
2022-09-30T19:15:16.464Z,2.13
2022-09-30T19:17:44.158Z,1.73
2022-09-30T19:20:12.045Z,2.33
2022-09-30T19:22:38.671Z,3.93
2022-09-30T19:25:06.644Z,5.03
2022-09-30T19:27:36.314Z,4.73
2022-09-30T19:30:03.713Z,5.30
2022-09-30T19:32:34.538Z,5.60
2022-09-30T19:35:06.391Z,3.50
2022-09-30T19:37:33.584Z,2.70
2022-09-30T19:40:06.773Z,2.57
2022-09-30T19:42:39.089Z,2.43
2022-09-30T19:45:06.929Z,3.23
2022-09-30T19:47:34.568Z,2.77
2022-09-30T19:50:01.216Z,3.27
2022-09-30T19:52:28.120Z,2.73
2022-09-30T19:54:58.658Z,12.00
2022-09-30T19:57:33.911Z,11.60
2022-09-30T20:00:05.029Z,9.60
2022-09-30T20:02:32.469Z,6.33
2022-09-30T20:05:00.499Z,3.87
2022-09-30T20:07:28.291Z,3.77
2022-09-30T20:09:54.913Z,2.10
2022-09-30T20:12:21.533Z,1.40
2022-09-30T20:15:06.388Z,2.00
2022-09-30T20:17:32.972Z,1.30
2022-09-30T20:20:18.198Z,1.70
2022-09-30T20:22:44.764Z,1.50
2022-09-30T20:25:11.403Z,1.47
2022-09-30T20:27:42.947Z,1.23
2022-09-30T20:30:10.142Z,1.70
2022-09-30T20:32:36.685Z,1.50
2022-09-30T20:35:03.328Z,1.27
2022-09-30T20:37:29.965Z,1.60
2022-09-30T20:39:57.741Z,1.33
2022-09-30T20:42:25.703Z,3.47
2022-09-30T20:44:52.327Z,0.83
2022-09-30T20:47:20.907Z,1.43
2022-09-30T20:49:47.501Z,1.90
2022-09-30T20:52:15.157Z,1.57
2022-09-30T20:54:41.797Z,1.40
2022-09-30T20:57:08.375Z,1.13
2022-09-30T20:59:34.983Z,0.90
2022-09-30T21:02:01.723Z,1.40
2022-09-30T21:04:28.634Z,1.00
2022-09-30T21:06:55.257Z,0.87
2022-09-30T21:09:21.928Z,1.10
2022-09-30T21:11:48.569Z,0.87
2022-09-30T21:14:18.074Z,0.80
2022-09-30T21:16:44.761Z,0.63
2022-09-30T21:19:11.395Z,0.87
2022-09-30T21:21:37.999Z,0.80
2022-09-30T21:24:04.560Z,0.57
2022-09-30T21:26:31.228Z,0.97
2022-09-30T21:28:57.974Z,0.40
2022-09-30T21:31:27.306Z,0.80
2022-09-30T21:33:56.559Z,1.30
2022-09-30T21:36:24.374Z,0.80
2022-09-30T21:38:52.064Z,0.70
2022-09-30T21:41:19.797Z,0.50
2022-09-30T21:43:47.066Z,0.60
2022-09-30T21:46:15.387Z,0.40
2022-09-30T21:48:42.697Z,0.70
2022-09-30T21:51:11.605Z,0.30
2022-09-30T21:53:39.436Z,0.40
2022-09-30T21:56:06.957Z,0.60
2022-09-30T21:58:33.967Z,0.50
2022-09-30T22:01:02.840Z,0.70
2022-09-30T22:03:30.865Z,0.73
2022-09-30T22:05:58.737Z,1.30
2022-09-30T22:08:26.466Z,0.73
2022-09-30T22:10:53.209Z,0.70
2022-09-30T22:13:19.861Z,0.80
2022-09-30T22:15:47.299Z,1.00
2022-09-30T22:18:18.985Z,1.20
2022-09-30T22:20:47.233Z,0.80
2022-09-30T22:23:15.014Z,1.17
2022-09-30T22:25:41.774Z,1.23
2022-09-30T22:28:08.429Z,1.20
2022-09-30T22:30:35.400Z,1.20
2022-09-30T22:33:20.608Z,1.90
2022-09-30T22:36:05.470Z,1.40
2022-09-30T22:38:32.036Z,1.20
2022-09-30T22:40:59.734Z,0.87
2022-09-30T22:43:27.237Z,0.50
2022-09-30T22:46:08.310Z,1.40
2022-09-30T22:48:35.378Z,0.37
2022-09-30T22:51:04.685Z,0.70
2022-09-30T22:53:31.244Z,0.67
2022-09-30T22:55:57.936Z,0.50
2022-09-30T22:58:24.580Z,0.60
2022-09-30T23:00:58.884Z,0.50
2022-09-30T23:03:26.045Z,0.77
2022-09-30T23:06:00.363Z,0.97
2022-09-30T23:08:34.124Z,0.60
2022-09-30T23:11:00.873Z,1.20
2022-09-30T23:13:30.732Z,1.10
2022-09-30T23:15:58.577Z,1.47
2022-09-30T23:18:26.473Z,0.93
2022-09-30T23:20:57.275Z,2.60
2022-09-30T23:23:24.234Z,2.63
2022-09-30T23:26:08.672Z,1.80
2022-09-30T23:28:35.697Z,1.00
2022-09-30T23:31:04.069Z,0.70
2022-09-30T23:33:30.884Z,0.80
2022-09-30T23:36:00.092Z,1.50
2022-09-30T23:38:26.888Z,1.10
2022-09-30T23:40:59.057Z,1.17
2022-09-30T23:43:34.233Z,0.90
2022-09-30T23:46:01.631Z,0.60
2022-09-30T23:48:28.529Z,0.77
2022-09-30T23:50:55.293Z,1.17
2022-09-30T23:53:23.077Z,0.70
2022-09-30T23:56:05.865Z,0.73
2022-09-30T23:58:33.506Z,0.90
